Language selection

My Weather Profile Weather Topics  | 

Dixon Entrance East: Past 24 Hour Conditions

 

West Sea Otter - 46204

08:00 AM PST 08 December 2022Buoy position: 51.4N 128.69W
Disclaimer

This table is a summary of hourly weather conditions for the past 24 hours.
Please note that these observations might not always be representative of weather conditions over their associated marine area.

Date / Time
(PST)
Wind(knots) Wave height(m) Wave period(s) Pressure(kPa) Air tempC) Water tempC)
08 December 2022
8:00 WSW 14 gust 19 5.7 14.2 100.6 6 8
7:00 SW 17 gust 23 5.2 13.5 100.6 7 8
6:00 WSW 17 gust 22 4.9 11.6 100.5 6 9
5:00 WSW 23 gust 28 4.6 10.7 100.4 7 9
4:00 SW 21 gust 27 3.9 10.2 100.3 6 9
3:00 SW 23 gust 32 3.8 9.1 100.1 6 9
2:00 SSW 24 gust 32 3.6 9.5 99.9 7 9
1:00 N/A N/A N/A N/A N/A N/A
0:00 ESE 26 gust 33 3.2 8.3 99.9 6 9
07 December 2022
23:00 ESE 27 gust 36 3.4 8.3 99.9 6 9
22:00 ESE 26 gust 33 3.8 8.8 99.9 5 9
21:00 ESE 31 gust 41 3.8 7.1 99.9 6 9
20:00 SE 34 gust 43 4.1 7.8 99.9 6 9
19:00 ESE 37 gust 44 4.5 7.5 99.9 7 9
18:00 ESE 38 gust 48 4.3 7.5 99.9 7 9
17:00 ESE 37 gust 46 3.9 6.9 100.0 7 9
16:00 ESE 36 gust 44 3.7 7.8 100.2 7 9
15:00 ESE 37 gust 46 3.7 7.3 100.3 7 9
14:00 ESE 35 gust 43 3.6 7.3 100.4 7 9
13:00 ESE 35 gust 42 3.6 7.1 100.6 7 9
12:00 ESE 34 gust 42 3.2 7.3 100.7 7 9
11:00 ESE 33 gust 40 3.1 6.7 100.8 7 9
10:00 ESE 33 gust 43 3.1 6.9 101.0 7 9
9:00 ESE 33 gust 41 2.8 6.1 101.0 7 9
8:00 ESE 31 gust 38 2.9 6.4 101.1 7 9

Zoom-in to make a selection

Map of Pacific - North Coast marine weather areas Middle Nomad - 46004 South Nomad - 46036 Dixon Entrance Central - 46145 South Moresby - 46147 Nanakwa Shoal - 46181 North Hecate Strait - 46183 North Nomad - 46184 South Hecate Strait - 46185 West Sea Otter - 46204 West Dixon Entrance - 46205 East Dellwood - 46207 West Moresby - 46208 Sartine Island Cape St.James Kindakun Rocks Langara Island Masset Municipal Airport Rose Spit Sandspit Airport Bella Bella Airport Bella Coola Airport Bonilla Island Cathedral Point Cumshewa Island Grey Islet Holland Rock Lucy Islands Lightstation Prince Rupert Airport
Legend:
buoy Buoy
land station Land Station

Pacific - North Coast Area

Another Region

What we are doing

Date modified: